sensor_id;sensor_type;location;lat;lon;timestamp;temperature;humidity
63047;DHT22;62025;39.238;9.126;2023-03-01T00:01:19;10.10;79.20
63047;DHT22;62025;39.238;9.126;2023-03-01T00:03:47;10.20;78.80
63047;DHT22;62025;39.238;9.126;2023-03-01T00:06:13;10.10;78.60
63047;DHT22;62025;39.238;9.126;2023-03-01T00:08:39;10.20;78.80
63047;DHT22;62025;39.238;9.126;2023-03-01T00:11:20;10.20;78.40
63047;DHT22;62025;39.238;9.126;2023-03-01T00:13:48;10.30;78.20
63047;DHT22;62025;39.238;9.126;2023-03-01T00:16:17;10.30;78.20
63047;DHT22;62025;39.238;9.126;2023-03-01T00:18:45;10.30;78.10
63047;DHT22;62025;39.238;9.126;2023-03-01T00:21:11;10.30;78.00
63047;DHT22;62025;39.238;9.126;2023-03-01T00:23:38;10.10;78.60
63047;DHT22;62025;39.238;9.126;2023-03-01T00:26:09;10.20;78.80
63047;DHT22;62025;39.238;9.126;2023-03-01T00:28:39;10.20;78.80
63047;DHT22;62025;39.238;9.126;2023-03-01T00:31:16;10.30;78.50
63047;DHT22;62025;39.238;9.126;2023-03-01T00:33:44;10.30;78.40
63047;DHT22;62025;39.238;9.126;2023-03-01T00:36:12;10.30;78.40
63047;DHT22;62025;39.238;9.126;2023-03-01T00:38:42;10.30;78.10
63047;DHT22;62025;39.238;9.126;2023-03-01T00:41:11;10.30;78.10
63047;DHT22;62025;39.238;9.126;2023-03-01T00:43:41;10.30;78.60
63047;DHT22;62025;39.238;9.126;2023-03-01T00:46:13;10.30;78.50
63047;DHT22;62025;39.238;9.126;2023-03-01T00:48:41;10.30;78.60
63047;DHT22;62025;39.238;9.126;2023-03-01T00:51:11;10.30;78.50
63047;DHT22;62025;39.238;9.126;2023-03-01T00:53:39;10.30;78.50
63047;DHT22;62025;39.238;9.126;2023-03-01T00:56:06;10.30;78.50
63047;DHT22;62025;39.238;9.126;2023-03-01T00:58:34;10.30;78.60
63047;DHT22;62025;39.238;9.126;2023-03-01T01:01:06;10.30;78.30
63047;DHT22;62025;39.238;9.126;2023-03-01T01:03:51;10.20;78.20
63047;DHT22;62025;39.238;9.126;2023-03-01T01:06:21;10.30;78.20
63047;DHT22;62025;39.238;9.126;2023-03-01T01:08:49;10.30;78.20
63047;DHT22;62025;39.238;9.126;2023-03-01T01:11:16;10.30;77.80
63047;DHT22;62025;39.238;9.126;2023-03-01T01:13:44;10.30;77.90
63047;DHT22;62025;39.238;9.126;2023-03-01T01:16:12;10.30;78.40
63047;DHT22;62025;39.238;9.126;2023-03-01T01:18:39;10.30;78.50
63047;DHT22;62025;39.238;9.126;2023-03-01T01:21:13;10.20;78.30
63047;DHT22;62025;39.238;9.126;2023-03-01T01:23:41;10.30;78.30
63047;DHT22;62025;39.238;9.126;2023-03-01T01:26:14;10.30;78.20
63047;DHT22;62025;39.238;9.126;2023-03-01T01:28:42;10.30;78.10
63047;DHT22;62025;39.238;9.126;2023-03-01T01:31:08;10.30;77.90
63047;DHT22;62025;39.238;9.126;2023-03-01T01:33:35;10.30;78.10
63047;DHT22;62025;39.238;9.126;2023-03-01T01:36:04;10.10;78.30
63047;DHT22;62025;39.238;9.126;2023-03-01T01:38:30;10.20;78.20
63047;DHT22;62025;39.238;9.126;2023-03-01T01:40:56;10.30;78.30
63047;DHT22;62025;39.238;9.126;2023-03-01T01:43:30;10.30;78.20
63047;DHT22;62025;39.238;9.126;2023-03-01T01:46:30;10.30;77.90
63047;DHT22;62025;39.238;9.126;2023-03-01T01:49:02;10.20;78.40
63047;DHT22;62025;39.238;9.126;2023-03-01T01:51:37;10.20;78.20
63047;DHT22;62025;39.238;9.126;2023-03-01T01:54:32;10.20;78.10
63047;DHT22;62025;39.238;9.126;2023-03-01T01:57:01;10.30;77.80
63047;DHT22;62025;39.238;9.126;2023-03-01T01:59:31;10.30;77.80
63047;DHT22;62025;39.238;9.126;2023-03-01T02:02:00;10.30;77.60
63047;DHT22;62025;39.238;9.126;2023-03-01T02:04:28;10.20;77.70
63047;DHT22;62025;39.238;9.126;2023-03-01T02:07:25;10.20;77.80
63047;DHT22;62025;39.238;9.126;2023-03-01T02:09:52;10.10;78.00
63047;DHT22;62025;39.238;9.126;2023-03-01T02:12:21;10.20;77.60
63047;DHT22;62025;39.238;9.126;2023-03-01T02:14:49;10.20;77.10
63047;DHT22;62025;39.238;9.126;2023-03-01T02:17:16;10.30;76.80
63047;DHT22;62025;39.238;9.126;2023-03-01T02:22:36;10.20;76.60
63047;DHT22;62025;39.238;9.126;2023-03-01T02:28:02;10.20;76.30
63047;DHT22;62025;39.238;9.126;2023-03-01T02:30:34;10.30;76.50
63047;DHT22;62025;39.238;9.126;2023-03-01T02:33:02;10.30;76.50
63047;DHT22;62025;39.238;9.126;2023-03-01T02:35:37;10.40;76.20
63047;DHT22;62025;39.238;9.126;2023-03-01T02:38:06;10.40;76.10
63047;DHT22;62025;39.238;9.126;2023-03-01T02:40:34;10.30;76.00
63047;DHT22;62025;39.238;9.126;2023-03-01T02:43:02;10.30;76.20
63047;DHT22;62025;39.238;9.126;2023-03-01T02:45:30;10.30;76.10
63047;DHT22;62025;39.238;9.126;2023-03-01T02:47:57;10.30;76.30
63047;DHT22;62025;39.238;9.126;2023-03-01T02:55:27;10.30;76.50
63047;DHT22;62025;39.238;9.126;2023-03-01T02:57:55;10.40;76.60
63047;DHT22;62025;39.238;9.126;2023-03-01T03:00:30;10.40;76.50
63047;DHT22;62025;39.238;9.126;2023-03-01T03:03:00;10.40;76.60
63047;DHT22;62025;39.238;9.126;2023-03-01T03:05:30;10.40;76.60
63047;DHT22;62025;39.238;9.126;2023-03-01T03:07:58;10.40;76.60
63047;DHT22;62025;39.238;9.126;2023-03-01T03:10:31;10.50;76.50
63047;DHT22;62025;39.238;9.126;2023-03-01T03:13:07;10.40;76.40
63047;DHT22;62025;39.238;9.126;2023-03-01T03:15:36;10.40;76.50
63047;DHT22;62025;39.238;9.126;2023-03-01T03:18:07;10.50;76.60
63047;DHT22;62025;39.238;9.126;2023-03-01T03:20:36;10.50;76.80
63047;DHT22;62025;39.238;9.126;2023-03-01T03:23:03;10.50;76.90
63047;DHT22;62025;39.238;9.126;2023-03-01T03:25:30;10.50;77.00
63047;DHT22;62025;39.238;9.126;2023-03-01T03:27:56;10.50;77.20
63047;DHT22;62025;39.238;9.126;2023-03-01T03:30:29;10.40;77.30
63047;DHT22;62025;39.238;9.126;2023-03-01T03:32:57;10.40;77.40
63047;DHT22;62025;39.238;9.126;2023-03-01T03:35:30;10.40;77.30
63047;DHT22;62025;39.238;9.126;2023-03-01T03:38:00;10.30;77.60
63047;DHT22;62025;39.238;9.126;2023-03-01T03:40:35;10.30;77.60
63047;DHT22;62025;39.238;9.126;2023-03-01T03:43:08;10.30;77.80
63047;DHT22;62025;39.238;9.126;2023-03-01T03:45:36;10.30;77.90
63047;DHT22;62025;39.238;9.126;2023-03-01T03:48:04;10.30;78.00
63047;DHT22;62025;39.238;9.126;2023-03-01T03:50:32;10.30;77.90
63047;DHT22;62025;39.238;9.126;2023-03-01T03:53:01;10.30;77.80
63047;DHT22;62025;39.238;9.126;2023-03-01T03:55:29;10.20;77.90
63047;DHT22;62025;39.238;9.126;2023-03-01T03:57:58;10.30;77.80
63047;DHT22;62025;39.238;9.126;2023-03-01T04:00:27;10.20;77.80
63047;DHT22;62025;39.238;9.126;2023-03-01T04:02:54;10.20;77.80
63047;DHT22;62025;39.238;9.126;2023-03-01T04:05:22;10.30;77.30
63047;DHT22;62025;39.238;9.126;2023-03-01T04:07:50;10.30;77.30
63047;DHT22;62025;39.238;9.126;2023-03-01T04:10:31;10.30;77.20
63047;DHT22;62025;39.238;9.126;2023-03-01T04:12:59;10.40;77.30
63047;DHT22;62025;39.238;9.126;2023-03-01T04:15:26;10.40;77.60
63047;DHT22;62025;39.238;9.126;2023-03-01T04:17:53;10.30;78.30
63047;DHT22;62025;39.238;9.126;2023-03-01T04:20:26;10.30;78.40
63047;DHT22;62025;39.238;9.126;2023-03-01T04:23:06;10.30;78.60
63047;DHT22;62025;39.238;9.126;2023-03-01T04:25:45;10.30;78.60
63047;DHT22;62025;39.238;9.126;2023-03-01T04:28:27;10.30;78.50
63047;DHT22;62025;39.238;9.126;2023-03-01T04:31:04;10.30;78.50
63047;DHT22;62025;39.238;9.126;2023-03-01T04:33:43;10.40;78.30
63047;DHT22;62025;39.238;9.126;2023-03-01T04:36:15;10.30;78.10
63047;DHT22;62025;39.238;9.126;2023-03-01T04:38:43;10.30;78.20
63047;DHT22;62025;39.238;9.126;2023-03-01T04:41:14;10.30;78.00
63047;DHT22;62025;39.238;9.126;2023-03-01T04:43:42;10.30;78.10
63047;DHT22;62025;39.238;9.126;2023-03-01T04:46:11;10.30;78.10
63047;DHT22;62025;39.238;9.126;2023-03-01T04:48:41;10.40;78.10
63047;DHT22;62025;39.238;9.126;2023-03-01T04:51:07;10.40;78.00
63047;DHT22;62025;39.238;9.126;2023-03-01T04:53:34;10.40;77.80
63047;DHT22;62025;39.238;9.126;2023-03-01T04:56:02;10.30;77.90
63047;DHT22;62025;39.238;9.126;2023-03-01T04:58:28;10.30;77.80
63047;DHT22;62025;39.238;9.126;2023-03-01T05:00:55;10.30;77.80
63047;DHT22;62025;39.238;9.126;2023-03-01T05:03:21;10.30;77.80
63047;DHT22;62025;39.238;9.126;2023-03-01T05:05:49;10.30;77.70
63047;DHT22;62025;39.238;9.126;2023-03-01T05:08:17;10.30;77.70
63047;DHT22;62025;39.238;9.126;2023-03-01T05:10:45;10.20;77.80
63047;DHT22;62025;39.238;9.126;2023-03-01T05:13:16;10.20;78.10
63047;DHT22;62025;39.238;9.126;2023-03-01T05:15:54;10.20;77.70
63047;DHT22;62025;39.238;9.126;2023-03-01T05:18:22;10.20;77.60
63047;DHT22;62025;39.238;9.126;2023-03-01T05:21:00;10.20;77.50
63047;DHT22;62025;39.238;9.126;2023-03-01T05:23:30;10.10;77.50
63047;DHT22;62025;39.238;9.126;2023-03-01T05:26:00;10.20;77.50
63047;DHT22;62025;39.238;9.126;2023-03-01T05:28:28;10.10;77.50
63047;DHT22;62025;39.238;9.126;2023-03-01T05:30:54;10.10;77.50
63047;DHT22;62025;39.238;9.126;2023-03-01T05:33:21;10.10;77.50
63047;DHT22;62025;39.238;9.126;2023-03-01T05:35:48;10.00;77.80
63047;DHT22;62025;39.238;9.126;2023-03-01T05:38:15;10.10;77.50
63047;DHT22;62025;39.238;9.126;2023-03-01T05:40:43;10.10;77.30
63047;DHT22;62025;39.238;9.126;2023-03-01T05:43:11;10.10;77.10
63047;DHT22;62025;39.238;9.126;2023-03-01T05:45:38;10.10;76.80
63047;DHT22;62025;39.238;9.126;2023-03-01T05:48:05;10.10;77.00
63047;DHT22;62025;39.238;9.126;2023-03-01T05:50:34;10.10;76.90
63047;DHT22;62025;39.238;9.126;2023-03-01T05:53:09;10.10;76.70
63047;DHT22;62025;39.238;9.126;2023-03-01T05:55:41;10.10;76.60
63047;DHT22;62025;39.238;9.126;2023-03-01T05:58:12;10.00;76.60
63047;DHT22;62025;39.238;9.126;2023-03-01T06:00:48;10.00;76.50
63047;DHT22;62025;39.238;9.126;2023-03-01T06:03:16;10.00;76.60
63047;DHT22;62025;39.238;9.126;2023-03-01T06:05:43;10.10;76.80
63047;DHT22;62025;39.238;9.126;2023-03-01T06:08:10;10.20;77.00
63047;DHT22;62025;39.238;9.126;2023-03-01T06:10:36;10.10;76.90
63047;DHT22;62025;39.238;9.126;2023-03-01T06:13:02;10.10;77.00
63047;DHT22;62025;39.238;9.126;2023-03-01T06:15:29;10.10;76.70
63047;DHT22;62025;39.238;9.126;2023-03-01T06:17:55;10.20;76.40
63047;DHT22;62025;39.238;9.126;2023-03-01T06:20:26;10.10;76.40
63047;DHT22;62025;39.238;9.126;2023-03-01T06:22:53;10.10;76.60
63047;DHT22;62025;39.238;9.126;2023-03-01T06:25:24;10.20;77.10
63047;DHT22;62025;39.238;9.126;2023-03-01T06:27:52;10.20;77.10
63047;DHT22;62025;39.238;9.126;2023-03-01T06:30:20;10.20;77.10
63047;DHT22;62025;39.238;9.126;2023-03-01T06:32:46;10.10;77.20
63047;DHT22;62025;39.238;9.126;2023-03-01T06:35:14;10.20;77.10
63047;DHT22;62025;39.238;9.126;2023-03-01T06:37:43;10.10;77.50
63047;DHT22;62025;39.238;9.126;2023-03-01T06:40:10;10.20;77.50
63047;DHT22;62025;39.238;9.126;2023-03-01T06:42:38;10.30;77.30
63047;DHT22;62025;39.238;9.126;2023-03-01T06:45:07;10.30;77.30
63047;DHT22;62025;39.238;9.126;2023-03-01T06:47:34;10.30;77.00
63047;DHT22;62025;39.238;9.126;2023-03-01T06:50:01;10.30;77.00
63047;DHT22;62025;39.238;9.126;2023-03-01T06:52:28;10.30;76.90
63047;DHT22;62025;39.238;9.126;2023-03-01T06:54:54;10.30;76.90
63047;DHT22;62025;39.238;9.126;2023-03-01T06:57:21;10.30;76.80
63047;DHT22;62025;39.238;9.126;2023-03-01T06:59:47;10.30;77.00
63047;DHT22;62025;39.238;9.126;2023-03-01T07:02:14;10.30;76.80
63047;DHT22;62025;39.238;9.126;2023-03-01T07:04:41;10.30;76.90
63047;DHT22;62025;39.238;9.126;2023-03-01T07:07:08;10.20;77.00
63047;DHT22;62025;39.238;9.126;2023-03-01T07:09:34;10.30;76.90
63047;DHT22;62025;39.238;9.126;2023-03-01T07:12:01;10.20;77.00
63047;DHT22;62025;39.238;9.126;2023-03-01T07:14:27;10.20;76.90
63047;DHT22;62025;39.238;9.126;2023-03-01T07:16:53;10.20;77.00
63047;DHT22;62025;39.238;9.126;2023-03-01T07:19:20;10.10;77.00
63047;DHT22;62025;39.238;9.126;2023-03-01T07:21:47;10.10;77.10
63047;DHT22;62025;39.238;9.126;2023-03-01T07:24:13;10.20;76.90
63047;DHT22;62025;39.238;9.126;2023-03-01T07:26:39;10.20;77.00
63047;DHT22;62025;39.238;9.126;2023-03-01T07:29:06;10.20;76.80
63047;DHT22;62025;39.238;9.126;2023-03-01T07:31:33;10.20;77.00
63047;DHT22;62025;39.238;9.126;2023-03-01T07:33:59;10.30;76.80
63047;DHT22;62025;39.238;9.126;2023-03-01T07:36:25;10.30;76.80
63047;DHT22;62025;39.238;9.126;2023-03-01T07:38:51;10.30;76.80
63047;DHT22;62025;39.238;9.126;2023-03-01T07:41:18;10.30;76.70
63047;DHT22;62025;39.238;9.126;2023-03-01T07:43:44;10.40;76.50
63047;DHT22;62025;39.238;9.126;2023-03-01T07:46:10;10.80;75.70
63047;DHT22;62025;39.238;9.126;2023-03-01T07:48:36;11.00;74.90
63047;DHT22;62025;39.238;9.126;2023-03-01T07:51:05;11.50;73.80
63047;DHT22;62025;39.238;9.126;2023-03-01T07:53:32;11.80;72.70
63047;DHT22;62025;39.238;9.126;2023-03-01T07:56:06;12.20;71.80
63047;DHT22;62025;39.238;9.126;2023-03-01T07:58:36;12.40;70.70
63047;DHT22;62025;39.238;9.126;2023-03-01T08:01:05;12.60;70.00
63047;DHT22;62025;39.238;9.126;2023-03-01T08:03:33;12.50;70.40
63047;DHT22;62025;39.238;9.126;2023-03-01T08:06:00;12.50;70.60
63047;DHT22;62025;39.238;9.126;2023-03-01T08:08:27;12.70;70.20
63047;DHT22;62025;39.238;9.126;2023-03-01T08:10:56;12.70;70.20
63047;DHT22;62025;39.238;9.126;2023-03-01T08:13:23;13.00;69.30
63047;DHT22;62025;39.238;9.126;2023-03-01T08:15:49;13.20;68.70
63047;DHT22;62025;39.238;9.126;2023-03-01T08:18:17;13.00;69.10
63047;DHT22;62025;39.238;9.126;2023-03-01T08:20:43;13.10;68.90
63047;DHT22;62025;39.238;9.126;2023-03-01T08:23:09;13.30;68.30
63047;DHT22;62025;39.238;9.126;2023-03-01T08:25:35;13.20;68.30
63047;DHT22;62025;39.238;9.126;2023-03-01T08:28:02;13.30;67.90
63047;DHT22;62025;39.238;9.126;2023-03-01T08:30:28;13.30;68.00
63047;DHT22;62025;39.238;9.126;2023-03-01T08:32:54;13.10;68.20
63047;DHT22;62025;39.238;9.126;2023-03-01T08:35:20;13.00;69.10
63047;DHT22;62025;39.238;9.126;2023-03-01T08:37:47;13.00;69.50
63047;DHT22;62025;39.238;9.126;2023-03-01T08:40:14;13.50;68.40
63047;DHT22;62025;39.238;9.126;2023-03-01T08:42:43;13.80;67.60
63047;DHT22;62025;39.238;9.126;2023-03-01T08:45:09;13.80;67.30
63047;DHT22;62025;39.238;9.126;2023-03-01T08:47:36;13.90;66.90
63047;DHT22;62025;39.238;9.126;2023-03-01T08:50:03;14.30;65.70
63047;DHT22;62025;39.238;9.126;2023-03-01T08:52:31;14.90;65.90
63047;DHT22;62025;39.238;9.126;2023-03-01T08:54:58;15.00;65.20
63047;DHT22;62025;39.238;9.126;2023-03-01T08:57:24;15.70;65.40
63047;DHT22;62025;39.238;9.126;2023-03-01T08:59:50;15.60;64.30
63047;DHT22;62025;39.238;9.126;2023-03-01T09:02:17;15.40;63.00
63047;DHT22;62025;39.238;9.126;2023-03-01T09:04:44;15.30;62.00
63047;DHT22;62025;39.238;9.126;2023-03-01T09:07:10;14.90;60.30
63047;DHT22;62025;39.238;9.126;2023-03-01T09:09:37;14.50;60.50
63047;DHT22;62025;39.238;9.126;2023-03-01T09:12:03;14.40;60.10
63047;DHT22;62025;39.238;9.126;2023-03-01T09:14:30;14.30;60.40
63047;DHT22;62025;39.238;9.126;2023-03-01T09:16:56;14.30;60.10
63047;DHT22;62025;39.238;9.126;2023-03-01T09:19:22;14.60;59.20
63047;DHT22;62025;39.238;9.126;2023-03-01T09:21:48;14.80;58.60
63047;DHT22;62025;39.238;9.126;2023-03-01T09:24:22;15.10;57.70
63047;DHT22;62025;39.238;9.126;2023-03-01T09:26:50;15.30;56.80
63047;DHT22;62025;39.238;9.126;2023-03-01T09:29:19;15.60;55.90
63047;DHT22;62025;39.238;9.126;2023-03-01T09:31:45;15.80;55.80
63047;DHT22;62025;39.238;9.126;2023-03-01T09:34:11;16.00;57.70
63047;DHT22;62025;39.238;9.126;2023-03-01T09:36:37;15.70;59.00
63047;DHT22;62025;39.238;9.126;2023-03-01T09:39:04;15.30;60.50
63047;DHT22;62025;39.238;9.126;2023-03-01T09:42:00;15.10;60.50
63047;DHT22;62025;39.238;9.126;2023-03-01T09:47:33;14.90;61.70
63047;DHT22;62025;39.238;9.126;2023-03-01T09:50:14;14.80;60.70
63047;DHT22;62025;39.238;9.126;2023-03-01T09:52:50;14.80;61.70
63047;DHT22;62025;39.238;9.126;2023-03-01T09:55:33;14.80;61.20
63047;DHT22;62025;39.238;9.126;2023-03-01T09:58:48;14.90;61.20
63047;DHT22;62025;39.238;9.126;2023-03-01T10:01:23;15.20;60.30
63047;DHT22;62025;39.238;9.126;2023-03-01T10:09:37;15.70;59.10
63047;DHT22;62025;39.238;9.126;2023-03-01T10:12:10;15.60;59.60
63047;DHT22;62025;39.238;9.126;2023-03-01T10:15:02;15.40;60.10
63047;DHT22;62025;39.238;9.126;2023-03-01T10:20:37;15.10;60.30
63047;DHT22;62025;39.238;9.126;2023-03-01T10:23:23;14.90;60.50
63047;DHT22;62025;39.238;9.126;2023-03-01T10:31:14;14.60;61.50
63047;DHT22;62025;39.238;9.126;2023-03-01T10:33:41;14.50;61.50
63047;DHT22;62025;39.238;9.126;2023-03-01T10:36:08;14.40;61.90
63047;DHT22;62025;39.238;9.126;2023-03-01T10:38:53;14.40;62.90
63047;DHT22;62025;39.238;9.126;2023-03-01T10:41:22;14.40;63.30
63047;DHT22;62025;39.238;9.126;2023-03-01T10:43:51;14.40;63.90
63047;DHT22;62025;39.238;9.126;2023-03-01T10:46:31;14.50;63.80
63047;DHT22;62025;39.238;9.126;2023-03-01T10:49:22;14.60;63.90
63047;DHT22;62025;39.238;9.126;2023-03-01T10:51:50;14.80;63.20
63047;DHT22;62025;39.238;9.126;2023-03-01T10:54:28;14.80;62.70
63047;DHT22;62025;39.238;9.126;2023-03-01T10:57:00;14.70;62.30
63047;DHT22;62025;39.238;9.126;2023-03-01T11:04:57;14.60;62.50
63047;DHT22;62025;39.238;9.126;2023-03-01T11:07:58;14.60;62.60
63047;DHT22;62025;39.238;9.126;2023-03-01T11:10:30;14.40;62.60
63047;DHT22;62025;39.238;9.126;2023-03-01T11:13:16;14.40;62.90
63047;DHT22;62025;39.238;9.126;2023-03-01T11:15:58;14.40;62.90
63047;DHT22;62025;39.238;9.126;2023-03-01T11:18:26;14.30;61.20
63047;DHT22;62025;39.238;9.126;2023-03-01T11:20:55;14.30;61.00
63047;DHT22;62025;39.238;9.126;2023-03-01T11:23:22;14.30;61.10
63047;DHT22;62025;39.238;9.126;2023-03-01T11:26:07;14.30;61.20
63047;DHT22;62025;39.238;9.126;2023-03-01T11:28:37;14.30;61.50
63047;DHT22;62025;39.238;9.126;2023-03-01T11:31:07;14.20;61.20
63047;DHT22;62025;39.238;9.126;2023-03-01T11:34:06;14.20;61.00
63047;DHT22;62025;39.238;9.126;2023-03-01T11:36:49;14.30;61.40
63047;DHT22;62025;39.238;9.126;2023-03-01T11:42:24;14.30;60.40
63047;DHT22;62025;39.238;9.126;2023-03-01T11:44:59;14.30;60.20
63047;DHT22;62025;39.238;9.126;2023-03-01T11:50:42;14.30;59.30
63047;DHT22;62025;39.238;9.126;2023-03-01T11:56:04;14.60;59.40
63047;DHT22;62025;39.238;9.126;2023-03-01T11:59:24;14.70;58.80
63047;DHT22;62025;39.238;9.126;2023-03-01T12:19:38;14.70;58.00
63047;DHT22;62025;39.238;9.126;2023-03-01T12:25:39;14.60;57.20
63047;DHT22;62025;39.238;9.126;2023-03-01T12:34:03;14.40;58.60
63047;DHT22;62025;39.238;9.126;2023-03-01T12:37:29;14.40;59.00
63047;DHT22;62025;39.238;9.126;2023-03-01T12:51:23;14.30;58.80
63047;DHT22;62025;39.238;9.126;2023-03-01T12:53:51;14.30;59.10
63047;DHT22;62025;39.238;9.126;2023-03-01T12:56:25;14.30;59.40
63047;DHT22;62025;39.238;9.126;2023-03-01T13:09:54;14.40;60.70
63047;DHT22;62025;39.238;9.126;2023-03-01T13:15:33;14.30;60.90
63047;DHT22;62025;39.238;9.126;2023-03-01T13:31:09;14.30;61.30
63047;DHT22;62025;39.238;9.126;2023-03-01T13:39:01;14.30;61.50
63047;DHT22;62025;39.238;9.126;2023-03-01T13:47:15;14.30;59.80
63047;DHT22;62025;39.238;9.126;2023-03-01T13:49:51;14.20;59.90
63047;DHT22;62025;39.238;9.126;2023-03-01T13:52:48;14.20;59.30
63047;DHT22;62025;39.238;9.126;2023-03-01T13:55:42;14.10;58.50
63047;DHT22;62025;39.238;9.126;2023-03-01T14:00:47;14.00;59.80
63047;DHT22;62025;39.238;9.126;2023-03-01T14:03:15;14.00;60.40
63047;DHT22;62025;39.238;9.126;2023-03-01T14:08:32;14.00;62.20
63047;DHT22;62025;39.238;9.126;2023-03-01T14:20:37;14.00;63.20
63047;DHT22;62025;39.238;9.126;2023-03-01T14:23:14;14.00;62.50
63047;DHT22;62025;39.238;9.126;2023-03-01T14:25:51;14.00;62.20
63047;DHT22;62025;39.238;9.126;2023-03-01T14:30:57;14.00;62.00
63047;DHT22;62025;39.238;9.126;2023-03-01T14:33:34;13.90;61.40
63047;DHT22;62025;39.238;9.126;2023-03-01T14:36:09;13.80;60.70
63047;DHT22;62025;39.238;9.126;2023-03-01T14:38:47;13.80;60.70
63047;DHT22;62025;39.238;9.126;2023-03-01T14:41:18;13.80;60.90
63047;DHT22;62025;39.238;9.126;2023-03-01T14:46:28;13.90;65.90
63047;DHT22;62025;39.238;9.126;2023-03-01T14:51:46;14.30;69.30
63047;DHT22;62025;39.238;9.126;2023-03-01T14:54:28;14.40;66.10
63047;DHT22;62025;39.238;9.126;2023-03-01T14:56:59;14.50;65.80
63047;DHT22;62025;39.238;9.126;2023-03-01T14:59:26;14.50;64.20
63047;DHT22;62025;39.238;9.126;2023-03-01T15:01:55;14.60;63.60
63047;DHT22;62025;39.238;9.126;2023-03-01T15:04:24;14.30;60.90
63047;DHT22;62025;39.238;9.126;2023-03-01T15:06:54;14.20;60.60
63047;DHT22;62025;39.238;9.126;2023-03-01T15:09:22;14.20;61.00
63047;DHT22;62025;39.238;9.126;2023-03-01T15:11:48;14.20;61.20
63047;DHT22;62025;39.238;9.126;2023-03-01T15:14:41;14.10;61.30
63047;DHT22;62025;39.238;9.126;2023-03-01T15:17:35;14.00;62.30
63047;DHT22;62025;39.238;9.126;2023-03-01T15:20:05;14.00;62.90
63047;DHT22;62025;39.238;9.126;2023-03-01T15:22:43;14.00;63.20
63047;DHT22;62025;39.238;9.126;2023-03-01T15:25:19;14.00;62.80
63047;DHT22;62025;39.238;9.126;2023-03-01T15:27:49;13.90;62.50
63047;DHT22;62025;39.238;9.126;2023-03-01T15:30:27;13.90;62.50
63047;DHT22;62025;39.238;9.126;2023-03-01T15:33:18;13.90;62.40
63047;DHT22;62025;39.238;9.126;2023-03-01T15:35:50;13.80;62.40
63047;DHT22;62025;39.238;9.126;2023-03-01T15:41:00;13.80;63.30
63047;DHT22;62025;39.238;9.126;2023-03-01T15:43:45;13.80;63.00
63047;DHT22;62025;39.238;9.126;2023-03-01T15:46:32;13.60;63.40
63047;DHT22;62025;39.238;9.126;2023-03-01T15:49:02;13.60;63.70
63047;DHT22;62025;39.238;9.126;2023-03-01T15:51:33;13.70;63.70
63047;DHT22;62025;39.238;9.126;2023-03-01T15:54:17;13.70;63.50
63047;DHT22;62025;39.238;9.126;2023-03-01T15:56:45;13.70;63.40
63047;DHT22;62025;39.238;9.126;2023-03-01T15:59:12;13.70;63.40
63047;DHT22;62025;39.238;9.126;2023-03-01T16:01:43;13.70;63.70
63047;DHT22;62025;39.238;9.126;2023-03-01T16:04:13;13.70;63.70
63047;DHT22;62025;39.238;9.126;2023-03-01T16:06:46;13.60;63.70
63047;DHT22;62025;39.238;9.126;2023-03-01T16:09:21;13.60;64.20
63047;DHT22;62025;39.238;9.126;2023-03-01T16:11:49;13.50;64.60
63047;DHT22;62025;39.238;9.126;2023-03-01T16:14:16;13.60;64.80
63047;DHT22;62025;39.238;9.126;2023-03-01T16:16:43;13.60;65.20
63047;DHT22;62025;39.238;9.126;2023-03-01T16:19:09;13.60;65.30
63047;DHT22;62025;39.238;9.126;2023-03-01T16:21:36;13.60;65.60
63047;DHT22;62025;39.238;9.126;2023-03-01T16:24:03;13.60;65.70
63047;DHT22;62025;39.238;9.126;2023-03-01T16:26:29;13.60;65.80
63047;DHT22;62025;39.238;9.126;2023-03-01T16:28:56;13.60;65.80
63047;DHT22;62025;39.238;9.126;2023-03-01T16:31:23;13.60;66.20
63047;DHT22;62025;39.238;9.126;2023-03-01T16:33:54;13.50;66.10
63047;DHT22;62025;39.238;9.126;2023-03-01T16:36:21;13.50;66.20
63047;DHT22;62025;39.238;9.126;2023-03-01T16:38:51;13.50;66.20
63047;DHT22;62025;39.238;9.126;2023-03-01T16:41:20;13.50;65.90
63047;DHT22;62025;39.238;9.126;2023-03-01T16:43:48;13.40;66.00
63047;DHT22;62025;39.238;9.126;2023-03-01T16:46:20;13.40;65.90
63047;DHT22;62025;39.238;9.126;2023-03-01T16:48:49;13.40;65.60
63047;DHT22;62025;39.238;9.126;2023-03-01T16:51:15;13.40;65.70
63047;DHT22;62025;39.238;9.126;2023-03-01T16:53:41;13.40;65.80
63047;DHT22;62025;39.238;9.126;2023-03-01T16:56:10;13.30;65.90
63047;DHT22;62025;39.238;9.126;2023-03-01T16:58:37;13.30;66.10
63047;DHT22;62025;39.238;9.126;2023-03-01T17:01:15;13.30;66.20
63047;DHT22;62025;39.238;9.126;2023-03-01T17:03:44;13.30;66.40
63047;DHT22;62025;39.238;9.126;2023-03-01T17:06:15;13.30;66.40
63047;DHT22;62025;39.238;9.126;2023-03-01T17:08:42;13.30;66.20
63047;DHT22;62025;39.238;9.126;2023-03-01T17:11:15;13.20;66.10
63047;DHT22;62025;39.238;9.126;2023-03-01T17:13:43;13.20;66.20
63047;DHT22;62025;39.238;9.126;2023-03-01T17:16:12;13.20;66.30
63047;DHT22;62025;39.238;9.126;2023-03-01T17:18:39;13.20;66.10
63047;DHT22;62025;39.238;9.126;2023-03-01T17:21:06;13.20;66.00
63047;DHT22;62025;39.238;9.126;2023-03-01T17:23:33;13.20;66.10
63047;DHT22;62025;39.238;9.126;2023-03-01T17:26:00;13.10;66.00
63047;DHT22;62025;39.238;9.126;2023-03-01T17:28:29;13.10;66.50
63047;DHT22;62025;39.238;9.126;2023-03-01T17:31:02;13.00;66.50
63047;DHT22;62025;39.238;9.126;2023-03-01T17:33:29;13.00;66.50
63047;DHT22;62025;39.238;9.126;2023-03-01T17:35:56;13.00;66.60
63047;DHT22;62025;39.238;9.126;2023-03-01T17:38:22;13.10;66.60
63047;DHT22;62025;39.238;9.126;2023-03-01T17:40:50;13.00;66.50
63047;DHT22;62025;39.238;9.126;2023-03-01T17:43:17;13.00;66.40
63047;DHT22;62025;39.238;9.126;2023-03-01T17:45:44;13.00;66.50
63047;DHT22;62025;39.238;9.126;2023-03-01T17:48:14;13.00;66.20
63047;DHT22;62025;39.238;9.126;2023-03-01T17:50:42;12.90;66.30
63047;DHT22;62025;39.238;9.126;2023-03-01T17:53:08;12.90;66.30
63047;DHT22;62025;39.238;9.126;2023-03-01T17:55:36;12.90;66.10
63047;DHT22;62025;39.238;9.126;2023-03-01T17:58:03;12.90;66.10
63047;DHT22;62025;39.238;9.126;2023-03-01T18:00:30;12.90;65.80
63047;DHT22;62025;39.238;9.126;2023-03-01T18:02:56;12.90;65.40
63047;DHT22;62025;39.238;9.126;2023-03-01T18:05:23;12.90;65.60
63047;DHT22;62025;39.238;9.126;2023-03-01T18:07:50;12.90;65.90
63047;DHT22;62025;39.238;9.126;2023-03-01T18:10:18;12.90;66.10
63047;DHT22;62025;39.238;9.126;2023-03-01T18:12:44;12.80;66.30
63047;DHT22;62025;39.238;9.126;2023-03-01T18:15:11;12.90;66.40
63047;DHT22;62025;39.238;9.126;2023-03-01T18:17:37;12.90;66.40